Marion, Oregon
Current Conditions -  °F | °C
As of 11:56 AM on Friday 31 Oct 2014 (Local Time) from KSLE Reporting Station
Scattered Clouds Scattered Clouds  
Wind Chill: 55°   Ceiling: Unl
Heat Index: 55°   Visibility: 10mi
Dew Point: 50°   Wind: 7mph
Humidity: 83%   Direction: 200°SSW
Pressure: 29.84"   Gusts: NA
Location:  44.75°N, 122.94°W
Report Text: KSLE 311856Z 20006KT 10SM SCT015 13/10 A2984 RMK AO2 SLP105 T01280100
Loading
Personal Weather Stations






























Interactive Weather Map
Tropical Storm Tracking
New forecast layout! Learn more

10-Day Weather Forecast

Advertisements
Track Severe Weather on mobile